createdAt,value
2023-02-25T00:02:02.594Z,13.27
2023-02-25T00:04:30.169Z,13.43
2023-02-25T00:06:56.783Z,8.50
2023-02-25T00:09:23.455Z,14.80
2023-02-25T00:11:57.460Z,6.77
2023-02-25T00:14:24.082Z,12.07
2023-02-25T00:16:51.027Z,14.77
2023-02-25T00:19:20.058Z,10.90
2023-02-25T00:21:46.691Z,11.43
2023-02-25T00:24:17.177Z,11.43
2023-02-25T00:26:44.784Z,17.57
2023-02-25T00:29:11.395Z,20.60
2023-02-25T00:31:38.222Z,13.67
2023-02-25T00:34:04.988Z,10.50
2023-02-25T00:36:33.822Z,12.67
2023-02-25T00:39:00.524Z,14.57
2023-02-25T00:41:29.066Z,9.87
2023-02-25T00:44:01.161Z,14.13
2023-02-25T00:46:30.102Z,10.77
2023-02-25T00:48:57.598Z,15.37
2023-02-25T00:51:28.144Z,8.30
2023-02-25T00:53:56.465Z,14.53
2023-02-25T00:56:27.599Z,8.37
2023-02-25T00:58:56.574Z,8.40
2023-02-25T01:01:25.867Z,11.00
2023-02-25T01:03:55.620Z,11.67
2023-02-25T01:06:24.317Z,10.87
2023-02-25T01:08:53.958Z,14.67
2023-02-25T01:11:27.578Z,5.73
2023-02-25T01:13:55.041Z,13.73
2023-02-25T01:16:24.901Z,9.60
2023-02-25T01:18:53.571Z,7.13
2023-02-25T01:21:27.099Z,12.70
2023-02-25T01:24:00.451Z,9.23
2023-02-25T01:26:29.124Z,13.37
2023-02-25T01:28:56.254Z,15.37
2023-02-25T01:31:29.660Z,10.17
2023-02-25T01:34:02.028Z,13.53
2023-02-25T01:36:37.954Z,15.30
2023-02-25T01:39:09.776Z,12.73
2023-02-25T01:41:38.004Z,12.73
2023-02-25T01:44:06.338Z,9.40
2023-02-25T01:46:32.976Z,12.63
2023-02-25T01:49:03.829Z,15.60
2023-02-25T01:51:32.552Z,17.98
2023-02-25T01:54:02.739Z,13.33
2023-02-25T01:56:30.921Z,13.13
2023-02-25T01:59:02.358Z,9.83
2023-02-25T02:01:32.463Z,12.80
2023-02-25T02:03:59.090Z,13.80
2023-02-25T02:06:36.882Z,11.70
2023-02-25T02:09:07.218Z,9.27
2023-02-25T02:11:37.150Z,12.47
2023-02-25T02:14:08.141Z,8.33
2023-02-25T02:16:56.822Z,8.53
2023-02-25T02:19:38.699Z,11.90
2023-02-25T02:22:13.442Z,18.07
2023-02-25T02:24:45.362Z,17.33
2023-02-25T02:27:22.374Z,12.50
2023-02-25T02:30:32.722Z,15.43
2023-02-25T02:33:34.557Z,16.50
2023-02-25T02:36:20.223Z,10.93
2023-02-25T02:39:25.240Z,12.60
2023-02-25T02:41:51.797Z,15.13
2023-02-25T02:44:37.358Z,14.43
2023-02-25T02:47:09.007Z,10.80
2023-02-25T02:49:41.581Z,11.90
2023-02-25T02:52:16.931Z,9.57
2023-02-25T02:54:48.892Z,17.03
2023-02-25T02:57:17.224Z,16.97
2023-02-25T02:59:51.917Z,18.33
2023-02-25T03:02:27.101Z,17.87
2023-02-25T03:04:59.660Z,16.50
2023-02-25T03:07:27.344Z,20.07
2023-02-25T03:09:59.961Z,14.23
2023-02-25T03:12:26.542Z,13.93
2023-02-25T03:14:55.483Z,21.80
2023-02-25T03:17:28.241Z,12.87
2023-02-25T03:20:04.330Z,11.83
2023-02-25T03:22:39.394Z,13.95
2023-02-25T03:25:14.649Z,11.93
2023-02-25T03:27:46.980Z,19.13
2023-02-25T03:30:22.825Z,13.57
2023-02-25T03:32:59.219Z,14.77
2023-02-25T03:35:28.140Z,17.07
2023-02-25T03:38:04.573Z,13.73
2023-02-25T03:40:32.814Z,14.03
2023-02-25T03:43:09.338Z,15.50
2023-02-25T03:45:38.987Z,18.27
2023-02-25T03:48:07.756Z,16.60
2023-02-25T03:50:46.667Z,24.00
2023-02-25T03:53:15.894Z,19.30
2023-02-25T03:55:44.806Z,23.23
2023-02-25T03:58:11.822Z,17.17
2023-02-25T04:00:45.968Z,17.20
2023-02-25T04:03:14.795Z,21.53
2023-02-25T04:05:43.628Z,23.80
2023-02-25T04:08:16.138Z,16.70
2023-02-25T04:10:46.520Z,13.67
2023-02-25T04:13:15.165Z,23.30
2023-02-25T04:15:47.540Z,13.37
2023-02-25T04:18:14.736Z,21.33
2023-02-25T04:20:41.830Z,14.20
2023-02-25T04:23:12.334Z,18.00
2023-02-25T04:25:41.118Z,19.00
2023-02-25T04:28:07.728Z,21.30
2023-02-25T04:30:34.648Z,19.53
2023-02-25T04:33:01.342Z,22.40
2023-02-25T04:35:30.693Z,15.97
2023-02-25T04:37:59.678Z,18.67
2023-02-25T04:40:26.327Z,9.47
2023-02-25T04:42:52.982Z,13.70
2023-02-25T04:45:20.593Z,14.00
2023-02-25T04:47:47.198Z,19.30
2023-02-25T04:50:16.245Z,12.33
2023-02-25T04:52:45.080Z,20.43
2023-02-25T04:55:11.706Z,15.37
2023-02-25T04:57:42.696Z,19.27
2023-02-25T05:00:16.900Z,18.50
2023-02-25T05:02:43.594Z,15.63
2023-02-25T05:05:11.213Z,20.40
2023-02-25T05:07:39.003Z,17.67
2023-02-25T05:10:07.740Z,19.07
2023-02-25T05:12:34.639Z,20.23
2023-02-25T05:15:04.037Z,12.67
2023-02-25T05:17:32.141Z,9.83
2023-02-25T05:20:01.516Z,14.33
2023-02-25T05:22:28.301Z,13.73
2023-02-25T05:24:55.075Z,17.87
2023-02-25T05:27:23.859Z,14.43
2023-02-25T05:29:51.564Z,11.43
2023-02-25T05:32:20.840Z,19.77
2023-02-25T05:34:47.604Z,15.73
2023-02-25T05:37:16.771Z,15.73
2023-02-25T05:39:45.889Z,13.47
2023-02-25T05:42:12.446Z,15.07
2023-02-25T05:44:39.016Z,17.60
2023-02-25T05:47:07.639Z,13.50
2023-02-25T05:49:34.355Z,16.93
2023-02-25T05:52:00.926Z,14.53
2023-02-25T05:54:27.543Z,11.17
2023-02-25T05:56:54.197Z,13.07
2023-02-25T05:59:20.862Z,12.97
2023-02-25T06:01:49.978Z,14.13
2023-02-25T06:04:16.868Z,16.07
2023-02-25T06:06:43.537Z,10.63
2023-02-25T06:09:10.498Z,12.77
2023-02-25T06:11:41.938Z,18.33
2023-02-25T06:14:10.915Z,14.30
2023-02-25T06:16:39.328Z,12.77
2023-02-25T06:19:09.630Z,11.80
2023-02-25T06:21:36.400Z,19.73
2023-02-25T06:24:06.418Z,11.60
2023-02-25T06:26:33.192Z,13.07
2023-02-25T06:29:02.518Z,10.93
2023-02-25T06:31:32.482Z,15.33
2023-02-25T06:33:59.149Z,13.90
2023-02-25T06:36:26.736Z,15.17
2023-02-25T06:38:55.940Z,11.13
2023-02-25T06:41:23.722Z,7.07
2023-02-25T06:43:55.370Z,13.30
2023-02-25T06:46:26.047Z,15.43
2023-02-25T06:48:57.440Z,11.80
2023-02-25T06:51:24.163Z,12.53
2023-02-25T06:53:53.416Z,15.13
2023-02-25T06:56:22.013Z,9.97
2023-02-25T06:58:49.473Z,15.90
2023-02-25T07:01:17.367Z,14.33
2023-02-25T07:03:44.430Z,18.33
2023-02-25T07:06:12.083Z,12.53
2023-02-25T07:08:41.317Z,11.73
2023-02-25T07:11:13.893Z,14.00
2023-02-25T07:13:46.012Z,12.20
2023-02-25T07:16:14.969Z,9.03
2023-02-25T07:18:45.253Z,10.73
2023-02-25T07:21:17.148Z,14.73
2023-02-25T07:23:44.998Z,9.33
2023-02-25T07:26:17.557Z,16.23
2023-02-25T07:28:45.086Z,11.67
2023-02-25T07:34:42.274Z,22.60
2023-02-25T07:37:08.902Z,16.43
2023-02-25T07:39:35.610Z,9.67
2023-02-25T07:42:04.643Z,16.27
2023-02-25T07:44:31.358Z,13.97
2023-02-25T07:46:57.981Z,14.47
2023-02-25T07:49:24.600Z,12.70
2023-02-25T07:51:53.269Z,17.50
2023-02-25T07:54:23.488Z,14.17
2023-02-25T07:56:53.578Z,20.57
2023-02-25T07:59:20.318Z,14.77
2023-02-25T08:01:49.331Z,17.30
2023-02-25T08:04:15.939Z,12.53
2023-02-25T08:06:47.584Z,15.53
2023-02-25T08:09:16.871Z,15.00
2023-02-25T08:11:44.468Z,15.23
2023-02-25T08:14:11.694Z,23.73
2023-02-25T08:16:38.786Z,22.73
2023-02-25T08:19:07.535Z,14.43
2023-02-25T08:21:35.351Z,14.03
2023-02-25T08:24:03.321Z,16.27
2023-02-25T08:26:33.000Z,18.30
2023-02-25T08:29:03.565Z,18.27
2023-02-25T08:31:43.055Z,13.35
2023-02-25T08:34:14.223Z,17.50
2023-02-25T08:36:42.923Z,26.20
2023-02-25T08:39:23.043Z,13.33
2023-02-25T08:41:50.434Z,13.27
2023-02-25T08:44:20.012Z,21.60
2023-02-25T08:46:49.747Z,14.00
2023-02-25T08:49:20.048Z,17.00
2023-02-25T08:52:53.607Z,15.65
2023-02-25T08:54:44.805Z,15.30
2023-02-25T08:57:15.846Z,19.08
2023-02-25T08:59:43.713Z,13.35
2023-02-25T09:02:16.950Z,12.50
2023-02-25T09:04:48.127Z,11.55
2023-02-25T09:07:22.811Z,11.25
2023-02-25T09:10:00.031Z,23.42
2023-02-25T09:12:28.151Z,11.80
2023-02-25T09:14:59.923Z,22.88
2023-02-25T09:17:29.057Z,15.85
2023-02-25T09:19:55.849Z,10.93
2023-02-25T09:22:22.532Z,12.23
2023-02-25T09:24:51.597Z,13.38
2023-02-25T09:27:18.286Z,13.38
2023-02-25T09:29:47.329Z,10.82
2023-02-25T09:32:20.285Z,9.32
2023-02-25T09:34:49.846Z,4.00
2023-02-25T09:37:20.792Z,21.30
2023-02-25T09:39:50.040Z,9.05
2023-02-25T09:42:25.386Z,10.07
2023-02-25T09:45:00.773Z,12.40
2023-02-25T09:47:55.759Z,13.88
2023-02-25T09:50:47.556Z,9.40
2023-02-25T09:53:27.894Z,11.20
2023-02-25T09:55:54.681Z,14.90
2023-02-25T09:58:31.691Z,10.20
2023-02-25T10:01:05.605Z,14.50
2023-02-25T10:03:48.148Z,9.70
2023-02-25T10:06:53.006Z,12.13
2023-02-25T10:09:56.714Z,13.18
2023-02-25T10:12:42.195Z,13.68
2023-02-25T10:15:21.253Z,10.98
2023-02-25T10:18:29.322Z,9.93
2023-02-25T10:21:32.915Z,10.68
2023-02-25T10:24:32.327Z,5.40
2023-02-25T10:27:11.427Z,7.45
2023-02-25T10:29:49.910Z,6.72
2023-02-25T10:32:16.617Z,18.95
2023-02-25T10:34:47.367Z,5.03
2023-02-25T10:37:41.109Z,10.45
2023-02-25T10:40:14.437Z,4.75
2023-02-25T10:42:44.855Z,12.35
2023-02-25T10:45:15.135Z,8.45
2023-02-25T10:47:47.603Z,7.60
2023-02-25T10:50:19.121Z,10.52
2023-02-25T10:52:54.562Z,13.48
2023-02-25T10:55:29.768Z,9.10
2023-02-25T10:57:57.835Z,5.63
2023-02-25T11:00:31.286Z,4.90
2023-02-25T11:03:01.483Z,5.18
2023-02-25T11:05:32.188Z,8.88
2023-02-25T11:08:00.223Z,8.65
2023-02-25T11:10:35.238Z,8.10
2023-02-25T11:13:04.148Z,8.15
2023-02-25T11:15:45.687Z,8.77
2023-02-25T11:18:50.709Z,5.97
2023-02-25T11:21:33.068Z,9.77
2023-02-25T11:24:02.871Z,5.38
2023-02-25T11:26:33.604Z,8.90
2023-02-25T11:29:05.265Z,3.13
2023-02-25T11:31:37.006Z,10.00
2023-02-25T11:34:28.863Z,6.38
2023-02-25T11:36:55.574Z,10.63
2023-02-25T11:39:27.976Z,2.50
2023-02-25T11:42:01.964Z,9.88
2023-02-25T11:44:47.582Z,5.60
2023-02-25T11:47:34.329Z,3.35
2023-02-25T11:50:29.778Z,7.45
2023-02-25T11:53:29.755Z,10.27
2023-02-25T11:55:59.835Z,4.53
2023-02-25T11:59:00.365Z,5.57
2023-02-25T12:01:45.018Z,4.53
2023-02-25T12:04:51.823Z,7.82
2023-02-25T12:07:55.340Z,10.00
2023-02-25T12:10:59.501Z,7.00
2023-02-25T12:13:51.039Z,6.63
2023-02-25T12:16:26.907Z,2.22
2023-02-25T12:19:12.010Z,2.85
2023-02-25T12:21:54.075Z,4.68
2023-02-25T12:24:29.627Z,4.90
2023-02-25T12:27:08.230Z,3.60
2023-02-25T12:29:48.130Z,8.07
2023-02-25T12:32:37.746Z,5.65
2023-02-25T12:35:27.394Z,6.82
2023-02-25T12:38:21.639Z,7.53
2023-02-25T12:41:09.709Z,4.03
2023-02-25T12:43:54.060Z,3.00
2023-02-25T12:46:49.451Z,2.80
2023-02-25T12:49:21.927Z,4.00
2023-02-25T12:52:17.573Z,2.63
2023-02-25T12:55:02.566Z,5.97
2023-02-25T12:57:41.078Z,5.60
2023-02-25T13:00:29.025Z,5.80
2023-02-25T13:03:25.906Z,5.30
2023-02-25T13:06:14.341Z,2.60
2023-02-25T13:09:01.156Z,4.97
2023-02-25T13:12:11.213Z,1.83
2023-02-25T13:15:02.841Z,1.23
2023-02-25T13:17:41.115Z,3.47
2023-02-25T13:20:50.832Z,3.58
2023-02-25T13:23:35.756Z,3.47
2023-02-25T13:26:44.087Z,6.15
2023-02-25T13:29:23.655Z,6.65
2023-02-25T13:32:12.528Z,5.03
2023-02-25T13:34:54.864Z,6.45
2023-02-25T13:38:14.907Z,8.15
2023-02-25T13:41:10.814Z,4.00
2023-02-25T13:43:43.620Z,4.43
2023-02-25T13:46:28.941Z,5.63
2023-02-25T13:49:17.239Z,3.70
2023-02-25T13:52:24.981Z,5.18
2023-02-25T13:54:57.413Z,3.28
2023-02-25T13:57:36.296Z,1.80
2023-02-25T14:00:05.220Z,5.68
2023-02-25T14:02:53.805Z,10.65
2023-02-25T14:05:53.499Z,6.22
2023-02-25T14:08:49.080Z,6.45
2023-02-25T14:11:57.787Z,3.75
2023-02-25T14:15:07.162Z,3.53
2023-02-25T14:17:59.939Z,3.72
2023-02-25T14:20:50.687Z,3.75
2023-02-25T14:23:41.788Z,5.55
2023-02-25T14:26:17.085Z,4.68
2023-02-25T14:29:07.751Z,7.80
2023-02-25T14:32:01.620Z,6.85
2023-02-25T14:35:06.357Z,4.63
2023-02-25T14:37:57.723Z,11.60
2023-02-25T14:40:58.239Z,5.72
2023-02-25T14:43:32.634Z,6.38
2023-02-25T14:46:17.396Z,6.40
2023-02-25T14:48:50.332Z,3.15
2023-02-25T14:51:34.618Z,9.43
2023-02-25T14:54:07.122Z,9.57
2023-02-25T14:57:05.528Z,5.32
2023-02-25T15:00:00.513Z,9.55
2023-02-25T15:03:09.482Z,6.95
2023-02-25T15:05:53.937Z,5.65
2023-02-25T15:08:47.633Z,10.23
2023-02-25T15:11:35.003Z,9.15
2023-02-25T15:14:08.207Z,12.15
2023-02-25T15:17:12.905Z,8.43
2023-02-25T15:19:51.633Z,6.70
2023-02-25T15:22:29.404Z,9.85
2023-02-25T15:25:21.041Z,2.20
2023-02-25T15:27:52.396Z,6.25
2023-02-25T15:30:26.988Z,12.75
2023-02-25T15:33:36.719Z,2.45
2023-02-25T15:36:16.168Z,8.43
2023-02-25T15:38:54.782Z,9.90
2023-02-25T15:41:27.034Z,2.65
2023-02-25T15:44:10.039Z,4.30
2023-02-25T15:46:37.500Z,4.00
2023-02-25T15:49:43.857Z,5.40
2023-02-25T15:52:12.102Z,11.82
2023-02-25T15:54:39.518Z,6.55
2023-02-25T15:57:12.485Z,6.68
2023-02-25T15:59:58.410Z,8.32
2023-02-25T16:02:30.592Z,6.05
2023-02-25T16:05:18.852Z,5.25
2023-02-25T16:07:53.784Z,4.30
2023-02-25T16:10:35.755Z,6.88
2023-02-25T16:13:05.252Z,4.90
2023-02-25T16:15:44.904Z,4.22
2023-02-25T16:18:46.796Z,2.33
2023-02-25T16:21:27.563Z,1.70
2023-02-25T16:27:25.859Z,2.38
2023-02-25T16:30:15.204Z,3.80
2023-02-25T16:33:09.168Z,7.40
2023-02-25T16:36:09.302Z,3.78
2023-02-25T16:38:43.821Z,1.90
2023-02-25T16:41:36.368Z,3.08
2023-02-25T16:44:05.724Z,3.60
2023-02-25T16:46:35.086Z,3.22
2023-02-25T16:49:24.824Z,4.03
2023-02-25T16:52:05.464Z,6.53
2023-02-25T16:54:44.891Z,4.70
2023-02-25T16:57:21.863Z,7.97
2023-02-25T17:00:20.820Z,1.35
2023-02-25T17:02:55.850Z,10.48
2023-02-25T17:05:34.510Z,3.95
2023-02-25T17:08:05.047Z,3.45
2023-02-25T17:10:46.922Z,7.88
2023-02-25T17:13:24.632Z,6.25
2023-02-25T17:15:57.213Z,4.45
2023-02-25T17:18:34.721Z,2.38
2023-02-25T17:21:33.865Z,6.73
2023-02-25T17:24:03.017Z,7.40
2023-02-25T17:26:31.111Z,7.67
2023-02-25T17:28:59.825Z,6.23
2023-02-25T17:31:29.697Z,2.77
2023-02-25T17:33:58.231Z,4.70
2023-02-25T17:36:34.388Z,6.00
2023-02-25T17:39:07.659Z,5.40
2023-02-25T17:41:38.473Z,5.33
2023-02-25T17:44:05.218Z,6.83
2023-02-25T17:46:37.848Z,5.53
2023-02-25T17:49:06.863Z,6.50
2023-02-25T17:51:38.935Z,11.87
2023-02-25T17:54:15.900Z,18.63
2023-02-25T17:56:45.068Z,6.70
2023-02-25T17:59:17.071Z,8.10
2023-02-25T18:01:54.216Z,8.27
2023-02-25T18:04:41.605Z,9.47
2023-02-25T18:07:30.732Z,6.03
2023-02-25T18:09:57.628Z,7.23
2023-02-25T18:12:38.005Z,9.57
2023-02-25T18:15:13.837Z,4.47
2023-02-25T18:17:41.810Z,4.53
2023-02-25T18:20:25.918Z,8.43
2023-02-25T18:22:53.622Z,6.13
2023-02-25T18:25:29.366Z,3.83
2023-02-25T18:27:58.882Z,6.97
2023-02-25T18:30:30.674Z,4.80
2023-02-25T18:32:59.310Z,5.57
2023-02-25T18:35:30.864Z,9.87
2023-02-25T18:38:07.368Z,5.70
2023-02-25T18:40:39.973Z,4.40
2023-02-25T18:43:07.309Z,3.97
2023-02-25T18:45:34.589Z,7.47
2023-02-25T18:48:01.856Z,7.23
2023-02-25T18:50:32.661Z,10.03
2023-02-25T18:53:00.577Z,5.37
2023-02-25T18:55:33.013Z,8.20
2023-02-25T18:58:01.124Z,3.77
2023-02-25T19:00:27.997Z,12.47
2023-02-25T19:03:02.255Z,8.77
2023-02-25T19:05:29.848Z,6.70
2023-02-25T19:07:57.017Z,3.67
2023-02-25T19:10:27.095Z,8.07
2023-02-25T19:13:04.475Z,7.90
2023-02-25T19:15:34.445Z,26.10
2023-02-25T19:18:03.216Z,10.33
2023-02-25T19:20:32.325Z,11.17
2023-02-25T19:22:59.039Z,10.23
2023-02-25T19:25:28.774Z,15.37
2023-02-25T19:27:56.798Z,14.40
2023-02-25T19:30:29.234Z,17.10
2023-02-25T19:33:02.828Z,16.30
2023-02-25T19:35:34.247Z,16.17
2023-02-25T19:38:04.165Z,10.03
2023-02-25T19:40:31.187Z,10.13
2023-02-25T19:43:01.026Z,9.07
2023-02-25T19:45:30.689Z,11.53
2023-02-25T19:47:59.969Z,10.87
2023-02-25T19:50:34.683Z,8.00
2023-02-25T19:53:02.720Z,9.37
2023-02-25T19:55:29.605Z,8.67
2023-02-25T19:57:56.390Z,9.03
2023-02-25T20:00:25.503Z,10.63
2023-02-25T20:02:56.289Z,16.40
2023-02-25T20:05:24.823Z,15.90
2023-02-25T20:07:51.658Z,17.23
2023-02-25T20:10:19.172Z,24.07
2023-02-25T20:12:46.931Z,16.50
2023-02-25T20:15:15.993Z,11.73
2023-02-25T20:17:44.712Z,11.27
2023-02-25T20:20:13.002Z,9.70
2023-02-25T20:22:40.372Z,8.23
2023-02-25T20:25:09.993Z,6.90
2023-02-25T20:27:39.233Z,9.67
2023-02-25T20:30:06.962Z,10.73
2023-02-25T20:32:34.219Z,9.33
2023-02-25T20:35:03.121Z,5.43
2023-02-25T20:37:33.785Z,11.03
2023-02-25T20:40:01.086Z,10.40
2023-02-25T20:42:30.367Z,16.30
2023-02-25T20:45:00.395Z,19.93
2023-02-25T20:47:29.722Z,13.60
2023-02-25T20:49:58.952Z,13.03
2023-02-25T20:52:26.919Z,11.43
2023-02-25T20:54:54.238Z,13.47
2023-02-25T20:57:28.181Z,11.17
2023-02-25T20:59:55.052Z,9.57
2023-02-25T21:02:22.360Z,10.27
2023-02-25T21:04:49.416Z,15.53
2023-02-25T21:07:18.716Z,10.03
2023-02-25T21:09:45.381Z,14.87
2023-02-25T21:12:14.433Z,13.37
2023-02-25T21:14:40.990Z,18.00
2023-02-25T21:17:09.700Z,18.17
2023-02-25T21:19:38.595Z,13.10
2023-02-25T21:22:06.765Z,12.20
2023-02-25T21:24:36.671Z,20.30
2023-02-25T21:27:06.546Z,16.00
2023-02-25T21:29:33.094Z,12.50
2023-02-25T21:31:59.796Z,18.70
2023-02-25T21:34:28.911Z,8.37
2023-02-25T21:36:58.365Z,10.87
2023-02-25T21:39:27.620Z,12.30
2023-02-25T21:41:56.628Z,9.13
2023-02-25T21:44:23.404Z,9.67
2023-02-25T21:46:52.409Z,13.83
2023-02-25T21:49:19.061Z,10.40
2023-02-25T21:51:46.032Z,13.03
2023-02-25T21:54:13.833Z,11.73
2023-02-25T21:56:40.787Z,8.13
2023-02-25T21:59:07.431Z,11.10
2023-02-25T22:01:37.395Z,10.77
2023-02-25T22:04:04.944Z,12.57
2023-02-25T22:06:31.658Z,13.00
2023-02-25T22:08:58.805Z,11.90
2023-02-25T22:11:30.892Z,11.17
2023-02-25T22:14:05.596Z,15.97
2023-02-25T22:16:32.835Z,11.40
2023-02-25T22:19:02.099Z,9.63
2023-02-25T22:21:30.719Z,12.33
2023-02-25T22:23:59.781Z,13.70
2023-02-25T22:26:32.155Z,15.13
2023-02-25T22:29:01.759Z,15.47
2023-02-25T22:31:28.887Z,10.23
2023-02-25T22:33:57.120Z,11.40
2023-02-25T22:36:27.006Z,10.40
2023-02-25T22:38:54.623Z,7.23
2023-02-25T22:41:28.038Z,13.47
2023-02-25T22:43:55.457Z,6.50
2023-02-25T22:46:26.265Z,11.23
2023-02-25T22:48:54.202Z,9.33
2023-02-25T22:51:29.662Z,6.87
2023-02-25T22:53:56.759Z,10.57
2023-02-25T22:56:26.450Z,7.43
2023-02-25T22:58:53.426Z,8.53
2023-02-25T23:01:22.279Z,9.93
2023-02-25T23:03:52.629Z,12.43
2023-02-25T23:06:34.338Z,7.23
2023-02-25T23:09:11.801Z,5.60
2023-02-25T23:11:41.898Z,10.03
2023-02-25T23:14:08.500Z,7.33
2023-02-25T23:16:41.585Z,7.83
2023-02-25T23:19:13.652Z,4.20
2023-02-25T23:21:40.233Z,8.30
2023-02-25T23:24:08.775Z,5.07
2023-02-25T23:26:40.617Z,10.60
2023-02-25T23:29:09.269Z,10.57
2023-02-25T23:31:47.055Z,10.93
2023-02-25T23:34:23.097Z,11.60
2023-02-25T23:36:50.129Z,12.30
2023-02-25T23:39:19.126Z,7.23
2023-02-25T23:41:46.057Z,7.23
2023-02-25T23:44:16.387Z,9.37
2023-02-25T23:46:44.066Z,12.27
2023-02-25T23:49:18.219Z,10.17
2023-02-25T23:51:48.910Z,10.47
2023-02-25T23:54:19.922Z,9.53
2023-02-25T23:56:47.209Z,6.30
2023-02-25T23:59:14.313Z,7.57
